»·PEaware :: N9915H KWHP-KCRQ

N9915H :: KWHP-KCRQ

FLIGHT INFORMATION

Flight Status: Arrived
Operator: Privately registered:
United States
More flights under this callsign
Pilot: Charlton B. (28558)
Aircraft: CIRRUS VISIONJET
(SF50)
More flights by this aircraft type
Origin: KWHP Whiteman
United States
Destination: KCRQ McClellan-Palomar
United States
More flights between these airports :: More routes between these airports
Route: TWINE V518 KIMMO V459 SLI V23 OCN
File this flight plan on PilotEdge
Remarks: TEC BURP27
Altitude:
(Current/Filed)
9,000ft
Speed:
(Current/Filed)
180kts
Departed: 29-Jun-20 09:56 AM
Arrived: 29-Jun-20 10:39 AM
Distance/Time
Traveled:
88nm/0:43
Distance/Time
To Go:
Arrived

Flight Plot

Page will automatically refresh every two minutes.


Map Options




Map Legend


Flown Route
Filed Route
Departure Airport
Arrival Airport
Navaid (VOR, NDB)
Fix

Horizontal Profiles

Position Reports

Time Latitude Longitude Heading Altitude Ground
Speed
29-Jun-20 09:41 34.260363 -118.413365 319 997ft 0kts
29-Jun-20 09:42 34.260363 -118.413365 319 997ft 0kts
29-Jun-20 09:42 34.260363 -118.413365 319 997ft 0kts
29-Jun-20 09:44 34.260363 -118.413365 319 997ft 0kts
29-Jun-20 09:44 34.260363 -118.413365 319 997ft 0kts
29-Jun-20 09:45 34.260363 -118.413365 319 997ft 0kts
29-Jun-20 09:47 34.260303 -118.413631 221 996ft 7kts
29-Jun-20 09:47 34.258434 -118.411856 130 986ft 7kts
29-Jun-20 09:48 34.255574 -118.408903 172 971ft 0kts
29-Jun-20 09:49 34.255574 -118.408903 172 971ft 0kts
29-Jun-20 09:50 34.255574 -118.408903 172 971ft 0kts
29-Jun-20 09:51 34.255574 -118.408903 172 971ft 0kts
29-Jun-20 09:52 34.255574 -118.408903 172 971ft 0kts
29-Jun-20 09:53 34.255574 -118.408903 172 971ft 0kts
29-Jun-20 09:54 34.255574 -118.408903 172 971ft 0kts
29-Jun-20 09:55 34.259513 -118.413697 319 1001ft 102kts
29-Jun-20 09:56 34.274770 -118.460254 272 2432ft 208kts
29-Jun-20 09:57 34.285287 -118.527746 301 5565ft 205kts
29-Jun-20 09:58 34.259327 -118.546905 129 8499ft 191kts
29-Jun-20 09:59 34.239480 -118.483984 57 8999ft 248kts
29-Jun-20 10:00 34.287699 -118.500723 279 9002ft 230kts
29-Jun-20 10:01 34.302094 -118.577858 280 8997ft 238kts
29-Jun-20 10:02 34.350647 -118.579509 74 8978ft 255kts
29-Jun-20 10:03 34.310602 -118.520847 142 8993ft 252kts
29-Jun-20 10:04 34.264974 -118.454166 128 8993ft 261kts
29-Jun-20 10:05 34.222377 -118.382117 127 8996ft 263kts
29-Jun-20 10:06 34.179768 -118.309871 123 9001ft 264kts
29-Jun-20 10:07 34.124884 -118.252178 152 9003ft 268kts
29-Jun-20 10:08 34.057650 -118.212697 154 9005ft 269kts
29-Jun-20 10:09 33.990314 -118.173765 157 8994ft 266kts
29-Jun-20 10:10 33.923582 -118.135359 156 8993ft 266kts
29-Jun-20 10:11 33.856819 -118.096971 156 8993ft 266kts
29-Jun-20 10:12 33.789911 -118.058266 149 8991ft 268kts
29-Jun-20 10:13 33.734825 -117.997298 135 8996ft 269kts
29-Jun-20 10:14 33.681443 -117.934281 135 8994ft 269kts
29-Jun-20 10:15 33.628033 -117.871278 135 8992ft 270kts
29-Jun-20 10:16 33.574389 -117.808106 135 9042ft 267kts
29-Jun-20 10:17 33.520812 -117.745020 135 8994ft 270kts
29-Jun-20 10:18 33.467117 -117.682144 136 9000ft 270kts
29-Jun-20 10:19 33.413523 -117.619393 136 9008ft 270kts
29-Jun-20 10:20 33.359808 -117.556609 136 9010ft 269kts
29-Jun-20 10:21 33.306211 -117.494075 136 9010ft 269kts
29-Jun-20 10:22 33.252638 -117.431525 134 9008ft 270kts
29-Jun-20 10:23 33.241058 -117.346255 81 9010ft 270kts
29-Jun-20 10:24 33.249503 -117.271024 81 7109ft 214kts
29-Jun-20 10:25 33.257971 -117.203840 81 5009ft 188kts
29-Jun-20 10:26 33.265947 -117.143322 81 4462ft 174kts
29-Jun-20 10:27 33.273468 -117.087685 81 3534ft 167kts
29-Jun-20 10:28 33.262707 -117.044506 150 3609ft 143kts
29-Jun-20 10:29 33.229170 -117.019090 151 3608ft 142kts
29-Jun-20 10:30 33.194813 -117.014349 212 3611ft 134kts
29-Jun-20 10:31 33.168890 -117.044692 247 3609ft 133kts
29-Jun-20 10:32 33.159429 -117.087581 257 3590ft 135kts
29-Jun-20 10:33 33.152459 -117.130161 258 3051ft 128kts
29-Jun-20 10:34 33.145741 -117.171936 258 2316ft 128kts
29-Jun-20 10:35 33.138982 -117.213826 258 1564ft 127kts
29-Jun-20 10:36 33.132712 -117.252640 257 768ft 92kts
29-Jun-20 10:37 33.128738 -117.276888 256 336ft 57kts
29-Jun-20 10:38 33.127046 -117.282762 119 335ft 0kts
29-Jun-20 10:39 33.126960 -117.278399 141 335ft 0kts

Navigation Log

Ident Type
Flight plan parsing failed, navigation log unavailable